Time;durP1;ratioP1;P1;durP2;ratioP2;P2;SDS_P1;SDS_P2;PMS_P1;PMS_P2;Temp;Humidity;BMP_temperature;BMP_pressure;BME280_temperature;BME280_humidity;BME280_pressure;Samples;Min_cycle;Max_cycle;Signal;HPM_P1;HPM_P2
2022/07/31 00:00:22;;;;;;;3.70;2.22;;;;;;;16.42;59.26;97578.44;5025008;28;20048;-61
2022/07/31 00:02:49;;;;;;;3.78;2.25;;;;;;;16.50;59.03;97579.72;5019517;28;20041;-61
2022/07/31 00:05:16;;;;;;;3.38;1.70;;;;;;;16.46;59.14;97586.88;5016028;28;20049;-62
2022/07/31 00:07:43;;;;;;;3.33;1.83;;;;;;;16.41;59.54;97581.44;5015849;28;20037;-62
2022/07/31 00:10:09;;;;;;;5.75;2.20;;;;;;;16.45;59.15;97583.34;5017729;28;20612;-62
2022/07/31 00:12:36;;;;;;;4.40;1.95;;;;;;;16.56;58.54;97575.88;5018727;28;20045;-62
2022/07/31 00:15:04;;;;;;;4.13;2.30;;;;;;;16.57;58.42;97580.22;5016321;28;20045;-62
2022/07/31 00:17:31;;;;;;;5.68;2.03;;;;;;;16.57;58.35;97579.41;5024907;28;20050;-62
2022/07/31 00:19:57;;;;;;;5.82;1.70;;;;;;;16.60;58.71;97576.09;5024568;28;20044;-62
2022/07/31 00:22:24;;;;;;;4.60;2.20;;;;;;;16.59;58.32;97569.81;5025475;28;20041;-62
2022/07/31 00:24:50;;;;;;;4.72;1.75;;;;;;;16.69;58.08;97573.56;5025314;28;20041;-62
2022/07/31 00:27:17;;;;;;;6.07;2.30;;;;;;;16.68;58.30;97577.38;5025168;28;20052;-62
2022/07/31 00:29:43;;;;;;;5.50;2.10;;;;;;;16.66;58.24;97566.72;5025195;28;20038;-62
2022/07/31 00:32:10;;;;;;;4.25;2.08;;;;;;;16.66;58.16;97566.72;5027749;28;20049;-62
2022/07/31 00:34:37;;;;;;;4.57;2.10;;;;;;;16.57;58.57;97571.19;5028945;28;20041;-62
2022/07/31 00:37:03;;;;;;;4.93;2.05;;;;;;;16.48;59.06;97569.06;5016802;28;20101;-62
2022/07/31 00:39:31;;;;;;;4.43;1.55;;;;;;;16.46;59.04;97570.47;5015897;28;20063;-62
2022/07/31 00:41:58;;;;;;;3.78;1.90;;;;;;;16.52;58.64;97570.13;5029147;28;20116;-63
2022/07/31 00:44:24;;;;;;;5.78;1.95;;;;;;;16.51;58.63;97565.78;5027549;28;20058;-62
2022/07/31 00:46:51;;;;;;;4.35;2.08;;;;;;;16.50;58.65;97569.63;5028502;28;20128;-62
2022/07/31 00:49:19;;;;;;;3.40;1.90;;;;;;;16.46;58.78;97563.09;5029056;28;20095;-62
2022/07/31 00:51:46;;;;;;;4.35;2.30;;;;;;;16.33;59.33;97570.00;5031623;28;20080;-62
2022/07/31 00:54:13;;;;;;;4.47;2.17;;;;;;;16.37;59.29;97564.81;5029074;28;20033;-62
2022/07/31 00:56:48;;;;;;;3.85;1.80;;;;;;;16.31;59.36;97557.75;5027415;28;20049;-62
2022/07/31 00:59:14;;;;;;;5.20;1.67;;;;;;;16.32;58.87;97568.38;5028252;28;20044;-62
2022/07/31 01:01:43;;;;;;;4.60;2.28;;;;;;;16.27;59.83;97562.13;5028666;28;20140;-61
2022/07/31 01:04:11;;;;;;;5.53;2.00;;;;;;;16.13;60.46;97568.25;5028746;28;20452;-62
2022/07/31 01:06:41;;;;;;;4.63;2.00;;;;;;;16.06;60.55;97573.19;5027869;28;20586;-62
2022/07/31 01:09:08;;;;;;;15.82;2.45;;;;;;;16.06;60.42;97559.53;5043904;28;20080;-61
2022/07/31 01:11:47;;;;;;;3.65;1.80;;;;;;;16.08;60.32;97566.38;5028109;28;20433;-61
2022/07/31 01:14:20;;;;;;;5.07;2.05;;;;;;;16.07;60.60;97567.47;5018439;28;20108;-62
2022/07/31 01:16:50;;;;;;;14.32;3.17;;;;;;;15.95;61.10;97570.56;5027914;28;20713;-62
2022/07/31 01:19:43;;;;;;;3.22;1.80;;;;;;;15.91;61.16;97563.16;5031958;28;20038;-61
2022/07/31 01:22:34;;;;;;;4.70;2.00;;;;;;;15.83;61.77;97561.84;5022638;28;20061;-62
2022/07/31 01:25:29;;;;;;;3.50;2.03;;;;;;;15.82;61.53;97568.41;5018420;28;20044;-62
2022/07/31 01:28:09;;;;;;;4.28;2.10;;;;;;;15.81;61.67;97562.13;5007325;28;20517;-61
2022/07/31 01:31:03;;;;;;;4.40;2.10;;;;;;;15.80;61.88;97565.97;5025051;28;20033;-62
2022/07/31 01:33:52;;;;;;;;;;;;;;;15.67;62.10;97569.31;5020547;28;20044;-62
2022/07/31 01:36:24;;;;;;;6.30;2.15;;;;;;;15.65;61.93;97572.31;5006396;28;19921;-61
2022/07/31 01:38:54;;;;;;;4.32;2.05;;;;;;;15.63;62.44;97573.69;5018683;28;20133;-62
2022/07/31 01:41:25;;;;;;;4.28;1.80;;;;;;;15.54;62.76;97568.81;5010457;28;20625;-62
2022/07/31 01:43:54;;;;;;;;;;;;;;;15.58;62.51;97569.91;5018599;28;20073;-62
2022/07/31 01:46:24;;;;;;;4.30;1.90;;;;;;;15.54;62.73;97568.00;5024413;28;19927;-62
2022/07/31 01:48:54;;;;;;;4.00;1.70;;;;;;;15.48;62.84;97570.75;5023861;28;20045;-62
2022/07/31 01:51:24;;;;;;;2.78;1.70;;;;;;;15.47;63.02;97569.13;5034040;28;20046;-62
2022/07/31 01:53:53;;;;;;;5.25;2.13;;;;;;;15.24;63.81;97570.56;5026235;28;20053;-62
2022/07/31 01:56:20;;;;;;;5.57;2.05;;;;;;;15.14;64.20;97567.88;5025522;28;20080;-64
2022/07/31 01:58:48;;;;;;;4.70;2.00;;;;;;;15.11;64.17;97568.44;5026405;28;20054;-62
2022/07/31 02:01:29;;;;;;;;;;;;;;;15.12;64.36;97570.88;5022359;28;20057;-62
2022/07/31 02:03:58;;;;;;;3.63;2.00;;;;;;;15.10;64.17;97561.34;5008782;28;19925;-62
2022/07/31 02:06:29;;;;;;;3.50;2.08;;;;;;;15.00;64.86;97563.00;5025786;28;20409;-62
2022/07/31 02:08:59;;;;;;;6.13;2.00;;;;;;;14.99;64.56;97564.09;5025561;28;20056;-62
2022/07/31 02:11:25;;;;;;;3.28;2.20;;;;;;;14.97;64.71;97568.19;5022082;28;20412;-62
2022/07/31 02:13:53;;;;;;;4.78;2.00;;;;;;;14.90;65.24;97563.84;5006889;28;20144;-62
2022/07/31 02:16:21;;;;;;;4.20;2.03;;;;;;;14.85;65.32;97558.38;5025151;28;20073;-62
2022/07/31 02:18:55;;;;;;;4.13;2.05;;;;;;;14.83;65.38;97563.31;5025505;28;20524;-62
2022/07/31 02:21:25;;;;;;;7.68;2.42;;;;;;;14.70;65.97;97557.28;5025881;28;20409;-61
2022/07/31 02:23:52;;;;;;;3.50;2.10;;;;;;;14.77;65.53;97564.38;5025477;28;20061;-62
2022/07/31 02:26:20;;;;;;;3.20;2.07;;;;;;;14.73;65.74;97566.00;5025041;28;20049;-61
2022/07/31 02:28:48;;;;;;;4.40;2.25;;;;;;;14.73;65.46;97558.66;5025580;28;20048;-61
2022/07/31 02:31:17;;;;;;;5.75;2.78;;;;;;;14.70;65.60;97556.47;5022139;28;20049;-63
2022/07/31 02:33:47;;;;;;;4.55;2.38;;;;;;;14.71;65.61;97558.13;5005644;28;20137;-61
2022/07/31 02:36:16;;;;;;;3.72;2.00;;;;;;;14.90;64.92;97552.94;5005507;28;20042;-61
2022/07/31 02:38:44;;;;;;;3.92;2.28;;;;;;;14.94;65.03;97548.56;5006431;28;20652;-61
2022/07/31 02:41:12;;;;;;;5.35;2.25;;;;;;;14.95;64.78;97546.66;5024328;28;20067;-62
2022/07/31 02:43:38;;;;;;;3.88;2.30;;;;;;;15.04;64.31;97546.91;5022161;28;20054;-62
2022/07/31 02:46:16;;;;;;;3.63;2.13;;;;;;;15.06;64.13;97548.25;5014606;28;20038;-62
2022/07/31 02:48:43;;;;;;;3.88;2.30;;;;;;;15.14;63.73;97543.34;5005231;28;20656;-62
2022/07/31 02:51:12;;;;;;;4.85;2.00;;;;;;;15.27;63.04;97547.38;5019633;28;20052;-61
2022/07/31 02:53:40;;;;;;;4.00;2.22;;;;;;;15.35;62.69;97554.97;5018090;28;20052;-62
2022/07/31 02:56:08;;;;;;;2.92;1.85;;;;;;;15.39;62.29;97547.88;5026008;28;20078;-62
2022/07/31 02:58:40;;;;;;;3.15;1.88;;;;;;;15.42;62.34;97552.78;5021413;28;20058;-62
2022/07/31 03:01:09;;;;;;;3.88;2.05;;;;;;;15.46;62.19;97550.31;5007276;28;20030;-62
2022/07/31 03:03:36;;;;;;;3.85;2.10;;;;;;;15.50;61.89;97543.19;5020233;28;20140;-61
2022/07/31 03:06:03;;;;;;;3.83;1.85;;;;;;;15.49;61.82;97547.03;5024000;28;20041;-61
2022/07/31 03:08:30;;;;;;;3.35;2.00;;;;;;;15.43;62.19;97543.50;5025076;28;20111;-61
2022/07/31 03:11:01;;;;;;;4.97;2.38;;;;;;;15.39;62.36;97547.88;5040828;28;20508;-61
2022/07/31 03:13:30;;;;;;;3.33;2.10;;;;;;;15.38;62.40;97539.97;5026008;28;20048;-63
2022/07/31 03:15:58;;;;;;;3.83;2.35;;;;;;;15.26;63.02;97548.47;5028383;28;20575;-61
2022/07/31 03:18:25;;;;;;;5.55;2.15;;;;;;;15.16;63.10;97541.13;5017596;28;20096;-62
2022/07/31 03:20:55;;;;;;;5.35;2.00;;;;;;;15.17;62.99;97543.59;5006457;28;20046;-63
2022/07/31 03:23:24;;;;;;;5.32;2.55;;;;;;;15.13;63.22;97550.69;5021778;28;20045;-62
2022/07/31 03:26:04;;;;;;;3.78;2.35;;;;;;;15.11;63.41;97539.22;5024299;28;20610;-62
2022/07/31 03:28:33;;;;;;;4.57;2.20;;;;;;;15.08;63.64;97539.81;5025184;28;20449;-62
2022/07/31 03:31:00;;;;;;;3.53;2.13;;;;;;;15.11;63.18;97543.88;5024676;28;20041;-62
2022/07/31 03:33:29;;;;;;;7.78;1.90;;;;;;;15.03;63.35;97543.34;5007009;28;20046;-62
2022/07/31 03:35:56;;;;;;;4.63;1.92;;;;;;;15.07;63.37;97538.16;5004580;28;20048;-62
2022/07/31 03:38:23;;;;;;;10.93;2.45;;;;;;;15.07;63.47;97547.16;5024655;28;20163;-62
2022/07/31 03:41:07;;;;;;;4.47;2.08;;;;;;;15.10;63.36;97547.72;5024274;28;20046;-62
2022/07/31 03:43:35;;;;;;;5.30;3.15;;;;;;;15.02;63.64;97549.91;5004989;28;20064;-61
2022/07/31 03:46:17;;;;;;;4.18;2.13;;;;;;;14.88;64.32;97549.66;5013007;28;20596;-61
2022/07/31 03:48:45;;;;;;;3.88;2.38;;;;;;;14.74;64.70;97551.31;5009032;28;20052;-61
2022/07/31 03:51:13;;;;;;;5.00;2.30;;;;;;;14.76;64.63;97554.56;5013159;28;20065;-61
2022/07/31 03:53:41;;;;;;;4.25;2.70;;;;;;;14.87;64.39;97556.22;5020810;28;20750;-62
2022/07/31 03:56:14;;;;;;;4.38;2.13;;;;;;;14.87;64.14;97547.22;5004402;28;20076;-61
2022/07/31 03:58:40;;;;;;;5.32;2.58;;;;;;;14.77;64.67;97542.59;5022109;28;20049;-62
2022/07/31 04:01:07;;;;;;;3.78;2.22;;;;;;;14.87;64.06;97548.03;5019239;28;20066;-62
2022/07/31 04:03:38;;;;;;;4.43;2.60;;;;;;;14.89;64.03;97547.75;5020099;28;20056;-62
2022/07/31 04:06:26;;;;;;;3.78;2.38;;;;;;;14.93;63.73;97549.66;5013900;28;20045;-61
2022/07/31 04:08:53;;;;;;;5.05;2.35;;;;;;;14.92;63.86;97555.38;5006527;28;20056;-62
2022/07/31 04:11:20;;;;;;;4.28;2.35;;;;;;;14.96;63.60;97553.72;5009049;28;20132;-62
2022/07/31 04:13:46;;;;;;;3.72;2.20;;;;;;;14.86;63.99;97546.41;5012341;28;20042;-62
2022/07/31 04:16:13;;;;;;;4.07;2.40;;;;;;;14.86;63.92;97548.31;5043270;28;20068;-62
2022/07/31 04:18:40;;;;;;;4.38;2.55;;;;;;;14.89;63.88;97548.56;5020733;28;20038;-62
2022/07/31 04:21:06;;;;;;;4.55;2.58;;;;;;;14.93;63.53;97552.38;5019619;28;20041;-62
2022/07/31 04:23:33;;;;;;;4.30;2.50;;;;;;;14.91;63.83;97549.13;5012369;28;20547;-62
2022/07/31 04:26:15;;;;;;;4.45;2.75;;;;;;;14.92;63.97;97556.19;5014048;28;20472;-62
2022/07/31 04:29:00;;;;;;;4.57;2.80;;;;;;;15.11;63.28;97550.13;5022607;28;20054;-62
2022/07/31 04:31:27;;;;;;;7.15;2.65;;;;;;;15.15;63.17;97550.41;5009384;28;20552;-62
2022/07/31 04:33:53;;;;;;;4.50;2.28;;;;;;;15.16;63.24;97558.34;5014613;28;20390;-64
2022/07/31 04:36:22;;;;;;;4.43;2.50;;;;;;;15.22;63.22;97567.28;5022930;28;20045;-62
2022/07/31 04:39:01;;;;;;;6.05;2.83;;;;;;;15.19;63.38;97557.75;5009290;28;20064;-62
2022/07/31 04:41:28;;;;;;;4.20;2.03;;;;;;;15.51;62.55;97563.13;5007866;28;20128;-62
2022/07/31 04:43:58;;;;;;;3.88;2.10;;;;;;;15.71;61.77;97560.25;5012804;28;20042;-62
2022/07/31 04:46:29;;;;;;;4.10;1.95;;;;;;;15.91;61.31;97566.72;5022344;28;20128;-62
2022/07/31 04:48:55;;;;;;;4.43;2.60;;;;;;;15.76;61.58;97562.16;5025341;28;20045;-62
2022/07/31 04:51:24;;;;;;;7.90;2.40;;;;;;;15.70;61.76;97560.56;5024726;28;20793;-62
2022/07/31 04:53:51;;;;;;;3.80;2.25;;;;;;;15.81;61.56;97570.31;5010811;28;20164;-62
2022/07/31 04:56:32;;;;;;;4.00;2.50;;;;;;;15.99;60.85;97560.69;5011850;28;20878;-62
2022/07/31 04:59:02;;;;;;;4.97;2.65;;;;;;;15.99;61.33;97555.22;5022610;28;20525;-62
2022/07/31 05:01:29;;;;;;;5.00;2.47;;;;;;;16.07;61.03;97563.94;5024579;28;20041;-62
2022/07/31 05:03:57;;;;;;;5.32;2.78;;;;;;;16.04;60.93;97559.03;5021575;28;20095;-62
2022/07/31 05:06:33;;;;;;;5.72;2.38;;;;;;;16.12;60.84;97555.69;5014846;28;20579;-62
2022/07/31 05:09:01;;;;;;;4.38;2.42;;;;;;;16.28;60.60;97555.59;5018736;28;20056;-62
2022/07/31 05:11:35;;;;;;;4.53;2.38;;;;;;;16.47;60.10;97555.72;5018230;28;20425;-62
2022/07/31 05:14:04;;;;;;;4.68;2.40;;;;;;;16.61;59.99;97553.94;5012041;28;20424;-62
2022/07/31 05:16:31;;;;;;;4.57;2.20;;;;;;;16.70;59.85;97556.06;5014342;28;20573;-62
2022/07/31 05:18:59;;;;;;;5.10;2.30;;;;;;;16.82;59.38;97559.22;5013640;28;20046;-63
2022/07/31 05:21:45;;;;;;;4.70;2.53;;;;;;;16.87;59.10;97558.34;5022571;28;20067;-62
2022/07/31 05:24:20;;;;;;;4.40;1.90;;;;;;;17.01;58.72;97567.50;5028229;28;20060;-62
2022/07/31 05:27:07;;;;;;;4.38;2.35;;;;;;;17.09;58.40;97565.25;5023948;28;20058;-62
2022/07/31 05:29:34;;;;;;;5.10;2.22;;;;;;;17.24;58.15;97567.00;5024026;28;20072;-58
2022/07/31 05:32:01;;;;;;;4.45;2.13;;;;;;;17.40;57.70;97556.72;5024912;28;20038;-58
2022/07/31 05:34:30;;;;;;;5.28;2.28;;;;;;;17.55;57.04;97567.47;5013458;28;20069;-59
2022/07/31 05:37:01;;;;;;;4.68;2.20;;;;;;;17.66;56.89;97559.94;5031360;28;20056;-59
2022/07/31 05:39:30;;;;;;;3.25;2.08;;;;;;;17.77;56.02;97557.06;5010714;28;20460;-59
2022/07/31 05:42:15;;;;;;;4.00;2.10;;;;;;;18.00;55.47;97563.59;5017651;28;20049;-59
2022/07/31 05:45:02;;;;;;;5.97;2.28;;;;;;;18.04;55.37;97558.34;5024533;28;20051;-59
2022/07/31 05:47:29;;;;;;;4.90;2.40;;;;;;;18.05;55.29;97558.03;5024823;28;20768;-59
2022/07/31 05:50:07;;;;;;;3.75;2.25;;;;;;;18.07;54.95;97552.28;5020030;28;20120;-59
2022/07/31 05:52:33;;;;;;;4.53;1.92;;;;;;;18.18;55.03;97559.22;5023410;28;20103;-59
2022/07/31 05:55:15;;;;;;;7.30;2.30;;;;;;;18.22;54.87;97564.94;5005819;28;20064;-59
2022/07/31 05:57:53;;;;;;;3.92;2.20;;;;;;;18.26;55.09;97562.41;5017543;28;20081;-60
2022/07/31 06:00:20;;;;;;;3.03;1.90;;;;;;;18.54;54.05;97557.06;5012304;28;20045;-59
2022/07/31 06:02:47;;;;;;;4.15;2.35;;;;;;;18.60;53.94;97561.31;5018669;28;20038;-60
2022/07/31 06:05:38;;;;;;;3.63;1.88;;;;;;;18.57;53.78;97567.41;5012099;28;20060;-59
2022/07/31 06:08:05;;;;;;;3.88;1.98;;;;;;;18.54;54.15;97570.75;5014400;28;20061;-59
2022/07/31 06:10:38;;;;;;;3.13;1.90;;;;;;;18.68;54.16;97570.78;5010984;28;20111;-58
2022/07/31 06:13:05;;;;;;;4.75;1.95;;;;;;;18.55;54.13;97570.47;5014324;28;20077;-63
2022/07/31 06:15:32;;;;;;;4.03;2.00;;;;;;;18.62;53.66;97575.56;5013194;28;20080;-63
2022/07/31 06:18:02;;;;;;;3.20;2.00;;;;;;;18.68;53.51;97570.78;5015483;28;20096;-66
2022/07/31 06:20:30;;;;;;;2.90;1.83;;;;;;;18.84;52.98;97577.63;5007458;28;20493;-67
2022/07/31 06:22:57;;;;;;;4.22;2.40;;;;;;;18.90;52.62;97578.38;5006627;28;20056;-66
2022/07/31 06:25:28;;;;;;;4.45;2.10;;;;;;;18.93;52.63;97583.25;5021840;28;20128;-66
2022/07/31 06:28:02;;;;;;;5.75;2.10;;;;;;;19.16;52.00;97579.88;5022044;28;20046;-66
2022/07/31 06:30:36;;;;;;;7.50;2.00;;;;;;;19.23;51.32;97583.00;5028813;28;20050;-66
2022/07/31 06:33:02;;;;;;;3.47;1.70;;;;;;;19.34;51.05;97578.13;5007605;28;20041;-66
2022/07/31 06:35:34;;;;;;;4.05;1.70;;;;;;;19.48;50.91;97583.63;5007490;28;20073;-66
2022/07/31 06:38:18;;;;;;;2.65;1.88;;;;;;;19.55;50.91;97589.53;5021390;28;20140;-66
2022/07/31 06:44:20;;;;;;;5.70;2.10;;;;;;;19.81;50.69;97594.50;5027068;28;20072;-66
2022/07/31 06:47:06;;;;;;;4.68;1.83;;;;;;;20.05;49.32;97596.19;5026435;28;20064;-66
2022/07/31 06:49:59;;;;;;;5.32;2.22;;;;;;;20.25;48.94;97586.69;5025830;28;20137;-66
2022/07/31 06:52:31;;;;;;;3.65;1.80;;;;;;;20.36;48.22;97586.44;5024823;28;20073;-66
2022/07/31 06:54:59;;;;;;;3.13;1.95;;;;;;;20.55;48.06;97580.75;5026653;28;20045;-66
2022/07/31 06:57:26;;;;;;;2.75;1.60;;;;;;;20.73;47.55;97584.44;5026412;28;20099;-66
2022/07/31 06:59:53;;;;;;;2.95;1.80;;;;;;;20.78;47.57;97578.81;5024982;28;20509;-66
2022/07/31 07:02:19;;;;;;;4.75;1.85;;;;;;;20.89;46.74;97582.13;5021319;28;20037;-66
2022/07/31 07:04:46;;;;;;;3.08;1.60;;;;;;;21.08;47.06;97574.78;5005226;28;20477;-66
2022/07/31 07:07:34;;;;;;;3.95;1.70;;;;;;;21.17;46.29;97579.22;5015172;28;20041;-66
2022/07/31 07:10:03;;;;;;;4.60;1.70;;;;;;;21.22;45.91;97575.47;5024576;28;20110;-66
2022/07/31 07:12:48;;;;;;;4.85;1.75;;;;;;;21.36;46.31;97578.13;5026430;28;20068;-66
2022/07/31 07:15:15;;;;;;;7.13;2.10;;;;;;;21.46;45.64;97578.97;5024319;28;20041;-66
2022/07/31 07:17:42;;;;;;;5.70;1.90;;;;;;;21.63;44.95;97570.75;5023976;28;20052;-66
2022/07/31 07:20:13;;;;;;;3.47;1.85;;;;;;;21.78;45.20;97569.53;5016480;28;20045;-66
2022/07/31 07:22:40;;;;;;;4.35;1.85;;;;;;;21.94;44.85;97563.56;5015708;28;20057;-66
2022/07/31 07:25:09;;;;;;;3.50;1.67;;;;;;;22.17;43.42;97563.41;5019588;28;20533;-66
2022/07/31 07:27:36;;;;;;;3.05;1.55;;;;;;;22.39;42.80;97562.44;5008492;28;20046;-66
2022/07/31 07:30:04;;;;;;;2.20;1.50;;;;;;;22.74;41.91;97573.44;5020936;28;20096;-66
2022/07/31 07:32:30;;;;;;;2.78;1.52;;;;;;;23.13;40.72;97570.75;5012314;28;20095;-66
2022/07/31 07:34:57;;;;;;;3.85;1.60;;;;;;;23.52;39.90;97576.28;5007627;28;20755;-66
2022/07/31 07:37:44;;;;;;;3.78;1.83;;;;;;;23.50;38.72;97581.34;5013274;28;20042;-66
2022/07/31 07:40:11;;;;;;;3.00;1.70;;;;;;;23.84;38.42;97575.16;5019724;28;20056;-66
2022/07/31 07:42:39;;;;;;;2.83;1.35;;;;;;;23.88;37.27;97576.91;5012356;28;20045;-67
2022/07/31 07:45:06;;;;;;;2.60;1.33;;;;;;;24.03;37.05;97569.97;5020422;28;20079;-67
2022/07/31 07:47:34;;;;;;;3.67;1.27;;;;;;;24.16;36.89;97570.06;5002597;28;20429;-66
2022/07/31 07:50:21;;;;;;;3.25;1.23;;;;;;;24.18;37.16;97576.09;5018198;28;20069;-67
2022/07/31 07:53:21;;;;;;;;;;;;;;;23.61;37.69;97576.25;5022547;28;20136;-67
2022/07/31 07:56:26;;;;;;;5.05;1.45;;;;;;;23.82;37.48;97574.66;4964747;28;19922;-67
2022/07/31 07:59:12;;;;;;;2.67;1.60;;;;;;;23.90;37.41;97569.09;4956940;28;20417;-67
2022/07/31 08:01:59;;;;;;;3.05;1.23;;;;;;;23.62;37.48;97566.81;5005434;28;20077;-67
2022/07/31 08:04:28;;;;;;;3.45;1.27;;;;;;;23.66;37.86;97572.47;5015968;28;20061;-66
2022/07/31 08:06:54;;;;;;;7.13;1.60;;;;;;;23.62;38.25;97575.09;5007491;28;20054;-66
2022/07/31 08:09:24;;;;;;;3.33;1.30;;;;;;;23.63;38.70;97570.41;5018662;28;20077;-66
2022/07/31 08:11:57;;;;;;;1.95;1.35;;;;;;;23.60;39.21;97563.59;5016516;28;20053;-66
2022/07/31 08:14:43;;;;;;;2.92;1.55;;;;;;;23.66;39.29;97569.69;5011112;28;20065;-66
2022/07/31 08:17:28;;;;;;;3.20;1.60;;;;;;;23.79;39.23;97565.09;5019033;28;20461;-66
2022/07/31 08:19:55;;;;;;;3.53;1.58;;;;;;;23.98;39.54;97563.81;5019662;28;20103;-66
2022/07/31 08:22:23;;;;;;;3.45;1.40;;;;;;;24.07;39.28;97558.22;5012432;28;20639;-66
2022/07/31 08:24:50;;;;;;;2.75;1.48;;;;;;;24.12;38.85;97563.59;5012294;28;20052;-66
2022/07/31 08:27:22;;;;;;;3.50;1.60;;;;;;;24.09;38.30;97558.69;5020391;28;20044;-67
2022/07/31 08:30:06;;;;;;;3.80;1.50;;;;;;;24.12;39.17;97561.63;5022080;28;20077;-66
2022/07/31 08:32:33;;;;;;;3.50;1.27;;;;;;;24.16;38.76;97559.81;5018746;28;20052;-66
2022/07/31 08:35:08;;;;;;;3.80;1.70;;;;;;;24.25;38.44;97553.41;5005597;28;20065;-67
2022/07/31 08:37:36;;;;;;;4.05;1.70;;;;;;;24.20;38.43;97559.13;5008363;28;20056;-67
2022/07/31 08:40:24;;;;;;;2.40;1.45;;;;;;;24.53;38.13;97550.88;5021617;28;20050;-66
2022/07/31 08:42:51;;;;;;;2.13;1.20;;;;;;;24.77;37.61;97549.31;5010073;28;20042;-66
2022/07/31 08:45:18;;;;;;;2.30;1.30;;;;;;;24.86;36.54;97548.44;5021778;28;20050;-66
2022/07/31 08:47:55;;;;;;;3.17;1.27;;;;;;;25.17;36.45;97547.91;5008170;28;20149;-66
2022/07/31 08:50:28;;;;;;;3.03;1.38;;;;;;;25.27;36.36;97534.75;5013820;28;20537;-66
2022/07/31 08:52:58;;;;;;;3.80;1.35;;;;;;;25.37;35.52;97539.84;5011080;28;20044;-66
2022/07/31 08:55:51;;;;;;;2.90;1.30;;;;;;;25.23;36.04;97542.13;5017829;28;20091;-66
2022/07/31 08:58:22;;;;;;;1.55;0.93;;;;;;;25.35;36.14;97536.59;5020731;28;20470;-66
2022/07/31 09:00:50;;;;;;;3.50;1.30;;;;;;;25.37;35.78;97536.25;5018459;28;20103;-66
2022/07/31 09:03:17;;;;;;;3.47;1.30;;;;;;;25.11;35.71;97538.22;5027431;28;20049;-66
2022/07/31 09:05:53;;;;;;;3.47;1.48;;;;;;;25.29;36.07;97543.53;5019882;28;20038;-66
2022/07/31 09:08:20;;;;;;;3.22;0.95;;;;;;;25.41;35.55;97545.50;5022539;28;20083;-66
2022/07/31 09:11:00;;;;;;;4.50;1.27;;;;;;;25.54;35.98;97536.03;5024554;28;20046;-66
2022/07/31 09:13:28;;;;;;;2.55;1.10;;;;;;;25.76;35.68;97542.25;5025155;28;20561;-66
2022/07/31 09:15:57;;;;;;;3.53;1.20;;;;;;;26.07;34.63;97531.69;5024214;28;20083;-66
2022/07/31 09:18:24;;;;;;;2.78;1.30;;;;;;;26.40;34.97;97538.19;5026258;28;20521;-66
2022/07/31 09:21:06;;;;;;;3.30;1.38;;;;;;;26.52;33.59;97529.81;5019683;28;20046;-66
2022/07/31 09:23:43;;;;;;;3.78;1.35;;;;;;;26.26;34.02;97525.53;5015602;28;20724;-66
2022/07/31 09:26:09;;;;;;;2.22;1.10;;;;;;;26.33;34.26;97522.97;5022089;28;20038;-66
2022/07/31 09:28:39;;;;;;;3.53;1.10;;;;;;;26.50;33.95;97523.81;5020149;28;20827;-66
2022/07/31 09:31:08;;;;;;;2.80;1.10;;;;;;;26.73;33.73;97517.66;5020487;28;20616;-66
2022/07/31 09:33:37;;;;;;;4.97;1.50;;;;;;;27.06;33.44;97529.63;5023580;28;20362;-66
2022/07/31 09:36:38;;;;;;;2.85;1.20;;;;;;;26.89;33.31;97531.56;5023254;28;20045;-67
2022/07/31 09:39:24;;;;;;;3.50;1.20;;;;;;;26.89;33.30;97542.69;5024660;28;20064;-66
2022/07/31 09:42:12;;;;;;;2.08;1.10;;;;;;;26.46;33.91;97529.25;5024329;28;20126;-66
2022/07/31 09:44:50;;;;;;;3.08;1.20;;;;;;;26.48;33.98;97523.34;5008900;28;20047;-66
2022/07/31 09:47:27;;;;;;;3.90;1.40;;;;;;;26.33;34.49;97530.47;5011094;28;20137;-66
2022/07/31 09:49:58;;;;;;;2.63;1.20;;;;;;;26.36;34.46;97525.00;5005136;28;20441;-66
2022/07/31 09:52:28;;;;;;;1.60;1.17;;;;;;;26.74;34.42;97519.28;5018748;28;20061;-67
2022/07/31 09:55:06;;;;;;;2.78;1.20;;;;;;;26.75;33.71;97523.66;5032538;28;20065;-67
2022/07/31 09:57:56;;;;;;;3.55;1.23;;;;;;;26.55;33.99;97515.22;5017261;28;20132;-66
2022/07/31 10:00:26;;;;;;;3.45;1.30;;;;;;;26.59;34.62;97529.19;5005386;28;20073;-66
2022/07/31 10:02:55;;;;;;;3.33;1.33;;;;;;;26.53;34.71;97511.97;5023619;28;20064;-66
2022/07/31 10:05:25;;;;;;;3.55;1.50;;;;;;;26.53;34.54;97502.88;5005601;28;20054;-66
2022/07/31 10:07:59;;;;;;;3.05;1.55;;;;;;;26.74;34.45;97502.63;5020567;28;20049;-66
2022/07/31 10:10:45;;;;;;;;;;;;;;;26.57;34.38;97499.00;5011341;28;20076;-66
2022/07/31 10:13:23;;;;;;;2.90;1.30;;;;;;;26.78;34.69;97502.72;5023843;28;20855;-66
2022/07/31 10:15:54;;;;;;;3.25;1.45;;;;;;;26.98;33.72;97503.66;5023617;28;20076;-66
2022/07/31 10:18:47;;;;;;;6.00;1.77;;;;;;;26.96;34.02;97486.53;5011493;28;20119;-66
2022/07/31 10:21:40;;;;;;;2.13;1.25;;;;;;;27.17;34.41;97494.59;5015666;28;20049;-66
2022/07/31 10:24:11;;;;;;;5.00;1.50;;;;;;;27.17;33.65;97491.00;5010351;28;20111;-67
2022/07/31 10:26:38;;;;;;;3.28;1.30;;;;;;;27.40;33.41;97491.16;5019842;28;20042;-67
2022/07/31 10:29:26;;;;;;;2.67;1.33;;;;;;;27.89;32.85;97487.09;5012437;28;20513;-67
2022/07/31 10:31:58;;;;;;;3.53;1.55;;;;;;;28.25;32.36;97497.34;5010452;28;20047;-67
2022/07/31 10:34:25;;;;;;;2.67;1.05;;;;;;;28.70;30.97;97486.69;5013795;28;20064;-67
2022/07/31 10:37:27;;;;;;;2.80;1.27;;;;;;;28.25;31.85;97483.44;5015335;28;20048;-66
2022/07/31 10:40:42;;;;;;;3.17;1.33;;;;;;;27.82;32.01;97483.38;5011105;28;20060;-67
2022/07/31 10:43:15;;;;;;;5.40;1.23;;;;;;;27.95;32.31;97470.94;5029792;28;20065;-67
2022/07/31 10:45:50;;;;;;;4.25;1.50;;;;;;;27.99;32.43;97471.00;5023163;28;20145;-66
2022/07/31 10:48:31;;;;;;;4.78;1.40;;;;;;;27.77;32.16;97485.25;5019462;28;20054;-67
2022/07/31 10:51:10;;;;;;;3.75;1.30;;;;;;;27.60;32.44;97480.09;5013147;28;20712;-67
2022/07/31 10:54:00;;;;;;;3.03;1.25;;;;;;;27.75;32.28;97479.25;5005168;28;20163;-67
2022/07/31 10:56:47;;;;;;;2.58;1.30;;;;;;;27.84;31.94;97462.34;5012608;28;20083;-66
2022/07/31 10:59:36;;;;;;;2.65;1.20;;;;;;;28.03;32.44;97469.09;5017688;28;20639;-66
2022/07/31 11:02:32;;;;;;;4.95;1.35;;;;;;;28.40;31.35;97465.06;5023779;28;20060;-67
2022/07/31 11:05:22;;;;;;;3.65;1.27;;;;;;;28.48;31.16;97457.66;5014180;28;20175;-66
2022/07/31 11:08:04;;;;;;;3.25;1.40;;;;;;;28.14;31.92;97464.56;5023357;28;20091;-66
2022/07/31 11:10:54;;;;;;;2.05;1.15;;;;;;;28.15;31.83;97457.81;5019059;28;20501;-66
2022/07/31 11:13:50;;;;;;;4.00;1.38;;;;;;;28.30;31.80;97450.56;5016265;28;20060;-66
2022/07/31 11:16:50;;;;;;;5.10;1.67;;;;;;;28.01;32.08;97451.97;5009400;28;20068;-66
2022/07/31 11:19:42;;;;;;;2.97;1.60;;;;;;;27.96;32.38;97452.25;5017822;28;20144;-66
2022/07/31 11:22:11;;;;;;;2.28;1.33;;;;;;;27.92;32.52;97447.44;5018318;28;20055;-66
2022/07/31 11:24:57;;;;;;;2.25;1.20;;;;;;;27.81;32.51;97443.59;5014773;28;20516;-66
2022/07/31 11:27:31;;;;;;;2.83;1.40;;;;;;;27.58;32.82;97451.81;5018856;28;20735;-66
2022/07/31 11:30:08;;;;;;;3.63;1.48;;;;;;;28.15;32.57;97449.44;5016357;28;20049;-66
2022/07/31 11:32:40;;;;;;;6.93;1.40;;;;;;;28.14;32.40;97450.63;5020987;28;20512;-66
2022/07/31 11:35:07;;;;;;;2.10;1.40;;;;;;;27.91;32.21;97440.25;5021263;28;20726;-66
2022/07/31 11:37:34;;;;;;;2.75;1.50;;;;;;;27.67;32.87;97435.75;5012549;28;20065;-66
2022/07/31 11:40:21;;;;;;;5.10;1.50;;;;;;;28.01;31.91;97429.69;5018765;28;20046;-66
2022/07/31 11:42:54;;;;;;;2.63;1.38;;;;;;;28.47;31.25;97428.19;5012079;28;20129;-66
2022/07/31 11:45:48;;;;;;;2.80;1.80;;;;;;;28.90;30.65;97411.44;5014248;28;20042;-67
2022/07/31 11:48:16;;;;;;;3.38;1.42;;;;;;;28.88;30.23;97422.91;5007942;28;20045;-66
2022/07/31 11:50:46;;;;;;;2.60;1.33;;;;;;;28.76;30.63;97420.31;5012875;28;20042;-66
2022/07/31 11:53:12;;;;;;;2.60;1.40;;;;;;;29.50;29.82;97412.69;5009926;28;20413;-67
2022/07/31 11:55:47;;;;;;;2.70;1.40;;;;;;;29.64;29.08;97416.88;5019150;28;20049;-66
2022/07/31 11:58:16;;;;;;;2.55;1.35;;;;;;;29.51;28.98;97394.00;5023723;28;20050;-67
2022/07/31 12:00:56;;;;;;;1.98;1.15;;;;;;;29.45;29.46;97410.25;5023873;28;20139;-67
2022/07/31 12:03:28;;;;;;;3.10;1.25;;;;;;;29.62;29.57;97397.72;5004609;28;20506;-66
2022/07/31 12:05:54;;;;;;;2.78;1.23;;;;;;;29.73;28.87;97398.69;5019481;28;20053;-66